Time;durP1;ratioP1;P1;durP2;ratioP2;P2;SDS_P1;SDS_P2;PMS_P1;PMS_P2;Temp;Humidity;BMP_temperature;BMP_pressure;BME280_temperature;BME280_humidity;BME280_pressure;Samples;Min_cycle;Max_cycle;Signal;HPM_P1;HPM_P2
2022/03/05 00:01:56;;;;;;;12.83;7.10;;;0.60;99.90;;;;;;5195769;28;20218;-46
2022/03/05 00:04:26;;;;;;;18.47;7.00;;;0.50;99.90;;;;;;5196649;28;20208;-47
2022/03/05 00:06:57;;;;;;;13.73;7.80;;;0.50;99.90;;;;;;5197221;28;20807;-47
2022/03/05 00:09:27;;;;;;;14.47;7.97;;;0.50;99.90;;;;;;5197879;28;20207;-48
2022/03/05 00:11:58;;;;;;;13.90;7.50;;;0.40;99.90;;;;;;5199709;28;20188;-49
2022/03/05 00:14:28;;;;;;;10.00;6.70;;;0.40;99.90;;;;;;5197870;28;20642;-48
2022/03/05 00:16:59;;;;;;;8.13;7.20;;;0.30;99.90;;;;;;5199045;28;20636;-48
2022/03/05 00:19:29;;;;;;;12.93;6.23;;;0.30;99.90;;;;;;5193186;28;20242;-47
2022/03/05 00:22:01;;;;;;;10.00;6.07;;;0.30;99.90;;;;;;5199129;28;20543;-47
2022/03/05 00:24:32;;;;;;;16.30;7.73;;;0.20;99.90;;;;;;5198901;28;20200;-47
2022/03/05 00:27:04;;;;;;;12.47;5.90;;;0.10;99.90;;;;;;5200237;28;20463;-48
2022/03/05 00:29:34;;;;;;;10.90;5.47;;;0.10;99.90;;;;;;5198487;28;20211;-47
2022/03/05 00:32:05;;;;;;;14.73;6.43;;;0.00;99.90;;;;;;5204428;28;20465;-46
2022/03/05 00:34:35;;;;;;;12.07;6.97;;;0.00;99.90;;;;;;5198987;28;20187;-47
2022/03/05 00:37:07;;;;;;;17.30;7.97;;;0.00;99.90;;;;;;5205426;28;20212;-48
2022/03/05 00:39:37;;;;;;;5.87;5.23;;;-0.10;99.90;;;;;;5207080;28;20293;-47
2022/03/05 00:42:08;;;;;;;14.37;6.97;;;-0.10;99.90;;;;;;5203896;28;20469;-48
2022/03/05 00:44:39;;;;;;;11.63;5.63;;;-0.10;99.90;;;;;;5204061;28;20306;-47
2022/03/05 00:47:09;;;;;;;6.77;5.40;;;-0.20;99.90;;;;;;5203737;28;20207;-47
2022/03/05 00:49:40;;;;;;;10.77;6.03;;;-0.20;99.90;;;;;;5200293;28;20250;-46
2022/03/05 00:52:10;;;;;;;9.83;5.50;;;-0.30;99.90;;;;;;5187132;28;20187;-47
2022/03/05 00:54:41;;;;;;;7.90;6.33;;;-0.30;99.90;;;;;;5205092;28;20218;-48
2022/03/05 00:57:11;;;;;;;8.70;6.73;;;-0.30;99.90;;;;;;5203180;28;20230;-47
2022/03/05 00:59:42;;;;;;;10.67;6.20;;;-0.30;99.90;;;;;;5201672;28;20188;-48
2022/03/05 01:02:12;;;;;;;15.87;6.17;;;-0.30;99.90;;;;;;5215785;28;20185;-46
2022/03/05 01:04:43;;;;;;;14.03;6.00;;;-0.30;99.90;;;;;;5194652;28;20212;-47
2022/03/05 01:07:14;;;;;;;14.40;6.77;;;-0.20;99.90;;;;;;5202637;28;20195;-46
2022/03/05 01:09:44;;;;;;;7.73;6.30;;;-0.30;99.90;;;;;;5202984;28;20188;-46
2022/03/05 01:12:15;;;;;;;12.90;6.83;;;-0.20;99.90;;;;;;5200427;28;20190;-48
2022/03/05 01:14:45;;;;;;;11.77;6.83;;;-0.20;99.90;;;;;;5198873;28;20182;-47
2022/03/05 01:17:16;;;;;;;11.70;6.03;;;-0.20;99.90;;;;;;5196983;28;20204;-48
2022/03/05 01:19:47;;;;;;;15.87;8.73;;;-0.20;99.90;;;;;;5198637;28;20181;-47
2022/03/05 01:22:17;;;;;;;14.27;6.63;;;-0.20;99.90;;;;;;5200295;28;20214;-46
2022/03/05 01:24:48;;;;;;;14.00;6.60;;;-0.20;99.90;;;;;;5198345;28;20470;-47
2022/03/05 01:27:21;;;;;;;8.23;6.37;;;-0.20;99.90;;;;;;5194818;28;20215;-48
2022/03/05 01:29:51;;;;;;;18.87;7.03;;;-0.10;99.90;;;;;;5193160;28;20187;-49
2022/03/05 01:32:21;;;;;;;17.07;7.03;;;-0.10;99.90;;;;;;5197293;28;20489;-46
2022/03/05 01:34:52;;;;;;;17.40;7.60;;;-0.10;99.90;;;;;;5194529;28;20197;-46
2022/03/05 01:37:22;;;;;;;16.43;6.90;;;-0.20;99.90;;;;;;5200225;28;20226;-48
2022/03/05 01:39:53;;;;;;;11.37;5.90;;;-0.20;99.90;;;;;;5196527;28;20628;-47
2022/03/05 01:42:24;;;;;;;15.73;6.53;;;-0.20;99.90;;;;;;5201923;28;20191;-47
2022/03/05 01:44:55;;;;;;;10.03;6.37;;;-0.20;99.90;;;;;;5192527;28;20218;-46
2022/03/05 01:47:26;;;;;;;14.00;6.83;;;-0.30;99.90;;;;;;5197011;28;20466;-48
2022/03/05 01:49:56;;;;;;;17.30;6.43;;;-0.20;99.90;;;;;;5201423;28;20652;-47
2022/03/05 01:52:27;;;;;;;7.77;6.10;;;-0.30;99.90;;;;;;5202082;28;20191;-47
2022/03/05 01:54:57;;;;;;;12.10;5.93;;;-0.30;99.90;;;;;;5199066;28;20645;-48
2022/03/05 01:57:28;;;;;;;20.40;7.90;;;-0.30;99.90;;;;;;5202783;28;20308;-47
2022/03/05 02:00:00;;;;;;;8.23;6.03;;;-0.30;99.90;;;;;;5199060;28;20285;-46
2022/03/05 02:02:30;;;;;;;11.50;6.03;;;-0.30;99.90;;;;;;5201785;28;20188;-46
2022/03/05 02:05:01;;;;;;;16.90;7.13;;;-0.40;99.90;;;;;;5200609;28;20470;-48
2022/03/05 02:07:32;;;;;;;6.90;6.10;;;-0.40;99.90;;;;;;5196313;28;20207;-46
2022/03/05 02:10:04;;;;;;;11.00;6.63;;;-0.40;99.90;;;;;;5202768;28;20671;-46
2022/03/05 02:12:37;;;;;;;13.13;6.53;;;-0.50;99.90;;;;;;5199296;28;20966;-48
2022/03/05 02:15:09;;;;;;;12.50;6.70;;;-0.50;99.90;;;;;;5199860;28;20437;-47
2022/03/05 02:17:39;;;;;;;14.83;8.47;;;-0.50;99.90;;;;;;5200597;28;20466;-48
2022/03/05 02:20:10;;;;;;;19.00;8.20;;;-0.50;99.90;;;;;;5200135;28;20445;-46
2022/03/05 02:22:41;;;;;;;10.40;7.37;;;-0.60;99.90;;;;;;5191058;28;20196;-48
2022/03/05 02:25:12;;;;;;;15.43;7.43;;;-0.60;99.90;;;;;;5195000;28;20304;-48
2022/03/05 02:27:44;;;;;;;15.40;8.37;;;-0.70;99.90;;;;;;5197154;28;20961;-47
2022/03/05 02:30:14;;;;;;;12.07;6.80;;;-0.70;99.90;;;;;;5188690;28;20172;-47
2022/03/05 02:32:45;;;;;;;16.10;6.57;;;-0.70;99.90;;;;;;5199647;28;20500;-48
2022/03/05 02:35:16;;;;;;;29.90;7.70;;;-0.70;99.90;;;;;;5198446;28;20238;-47
2022/03/05 02:37:46;;;;;;;18.40;7.40;;;-0.80;99.90;;;;;;5197523;28;20464;-47
2022/03/05 02:40:17;;;;;;;15.30;7.63;;;-0.80;99.90;;;;;;5204747;28;20175;-49
2022/03/05 02:42:47;;;;;;;16.93;7.30;;;-0.80;99.90;;;;;;5199473;28;20177;-46
2022/03/05 02:45:18;;;;;;;11.57;7.37;;;-0.80;99.90;;;;;;5202630;28;20265;-46
2022/03/05 02:47:48;;;;;;;10.97;7.47;;;-0.90;99.90;;;;;;5202079;28;20214;-47
2022/03/05 02:50:19;;;;;;;11.30;7.33;;;-0.90;99.90;;;;;;5197704;28;20185;-47
2022/03/05 02:52:49;;;;;;;17.53;7.87;;;-0.90;99.90;;;;;;5194977;28;20642;-48
2022/03/05 02:55:20;;;;;;;22.70;8.80;;;-0.90;99.90;;;;;;5199080;28;20187;-46
2022/03/05 02:57:51;;;;;;;12.27;7.60;;;-0.90;99.90;;;;;;5197227;28;20219;-46
2022/03/05 03:00:21;;;;;;;17.40;7.80;;;-0.90;99.90;;;;;;5183266;28;20188;-47
2022/03/05 03:02:52;;;;;;;18.00;7.70;;;-0.80;99.90;;;;;;5199112;28;20426;-48
2022/03/05 03:05:23;;;;;;;21.30;8.47;;;-0.90;99.90;;;;;;5202062;28;20179;-47
2022/03/05 03:07:54;;;;;;;18.80;8.30;;;-0.90;99.90;;;;;;5201327;28;20959;-47
2022/03/05 03:10:25;;;;;;;18.80;7.27;;;-0.90;99.90;;;;;;5200700;28;20535;-46
2022/03/05 03:12:57;;;;;;;19.13;8.20;;;-0.90;99.90;;;;;;5200135;28;20173;-46
2022/03/05 03:15:28;;;;;;;17.73;8.97;;;-1.00;99.90;;;;;;5202554;28;20393;-46
2022/03/05 03:17:59;;;;;;;13.00;7.30;;;-1.00;99.90;;;;;;5204824;28;20561;-46
2022/03/05 03:20:29;;;;;;;15.53;8.20;;;-0.90;99.90;;;;;;5201407;28;20195;-45
2022/03/05 03:23:00;;;;;;;15.77;9.13;;;-1.00;99.90;;;;;;5194387;28;20238;-46
2022/03/05 03:25:31;;;;;;;14.27;8.50;;;-1.00;99.90;;;;;;5196184;28;20179;-46
2022/03/05 03:28:01;;;;;;;19.30;8.93;;;-1.00;99.90;;;;;;5201463;28;20207;-47
2022/03/05 03:30:32;;;;;;;13.50;7.70;;;-1.00;99.90;;;;;;5200316;28;20582;-46
2022/03/05 03:33:03;;;;;;;22.97;8.37;;;-1.00;99.90;;;;;;5197214;28;20207;-46
2022/03/05 03:35:33;;;;;;;20.20;7.87;;;-1.00;99.90;;;;;;5195434;28;20533;-45
2022/03/05 03:38:04;;;;;;;28.97;7.77;;;-1.00;99.90;;;;;;5197063;28;20200;-48
2022/03/05 03:40:34;;;;;;;18.07;7.87;;;-1.10;99.90;;;;;;5194765;28;20191;-47
2022/03/05 03:43:05;;;;;;;18.03;7.87;;;-1.10;99.90;;;;;;5198257;28;20648;-47
2022/03/05 03:45:36;;;;;;;14.63;8.33;;;-1.10;99.90;;;;;;5196841;28;20195;-45
2022/03/05 03:48:06;;;;;;;19.30;8.20;;;-1.10;99.90;;;;;;5196447;28;20197;-46
2022/03/05 03:50:37;;;;;;;15.70;7.63;;;-1.10;99.90;;;;;;5193658;28;20190;-47
2022/03/05 03:53:08;;;;;;;20.10;7.77;;;-1.20;99.90;;;;;;5197287;28;20191;-47
2022/03/05 03:55:38;;;;;;;17.30;8.20;;;-1.20;99.90;;;;;;5199008;28;20198;-46
2022/03/05 03:58:09;;;;;;;19.10;8.43;;;-1.20;99.90;;;;;;5196462;28;20239;-48
2022/03/05 04:00:39;;;;;;;15.00;8.83;;;-1.20;99.90;;;;;;5193996;28;20187;-47
2022/03/05 04:03:10;;;;;;;19.10;9.00;;;-1.20;99.90;;;;;;5202840;28;20652;-47
2022/03/05 04:05:40;;;;;;;15.80;8.97;;;-1.20;99.90;;;;;;5181044;28;20589;-46
2022/03/05 04:11:00;;;;;;;18.27;8.13;;;-1.20;99.90;;;;;;5199604;28;20255;-48
2022/03/05 04:13:31;;;;;;;10.60;8.30;;;-1.20;99.90;;;;;;5198960;28;20466;-47
2022/03/05 04:16:02;;;;;;;15.67;8.67;;;-1.20;99.90;;;;;;5203862;28;20183;-47
2022/03/05 04:18:33;;;;;;;21.37;10.00;;;-1.20;99.90;;;;;;5193807;28;20211;-47
2022/03/05 04:21:05;;;;;;;18.27;9.03;;;-1.30;99.90;;;;;;5196115;28;20430;-47
2022/03/05 04:23:36;;;;;;;9.97;8.00;;;-1.20;99.90;;;;;;5195385;28;20462;-46
2022/03/05 04:26:06;;;;;;;24.60;9.50;;;-1.20;99.90;;;;;;5199832;28;20441;-47
2022/03/05 04:28:37;;;;;;;23.53;9.07;;;-1.30;99.90;;;;;;5189536;28;20599;-48
2022/03/05 04:31:07;;;;;;;22.30;9.23;;;-1.30;99.90;;;;;;5203264;28;20191;-46
2022/03/05 04:33:38;;;;;;;12.93;8.67;;;-1.30;99.90;;;;;;5198180;28;20180;-46
2022/03/05 04:36:08;;;;;;;18.63;9.80;;;-1.30;99.90;;;;;;5198545;28;20191;-48
2022/03/05 04:38:39;;;;;;;20.97;9.40;;;-1.30;99.90;;;;;;5199008;28;20298;-46
2022/03/05 04:41:10;;;;;;;19.03;9.17;;;-1.30;99.90;;;;;;5198422;28;20238;-48
2022/03/05 04:43:40;;;;;;;13.60;9.70;;;-1.30;99.90;;;;;;5200940;28;20206;-46
2022/03/05 04:46:12;;;;;;;19.43;9.87;;;-1.40;99.90;;;;;;5198584;28;20178;-46
2022/03/05 04:48:42;;;;;;;22.00;10.87;;;-1.40;99.90;;;;;;5198770;28;20167;-47
2022/03/05 04:51:13;;;;;;;20.17;9.30;;;-1.40;99.90;;;;;;5193235;28;20449;-47
2022/03/05 04:53:43;;;;;;;21.73;10.23;;;-1.40;99.90;;;;;;5196141;28;20186;-46
2022/03/05 04:56:14;;;;;;;18.50;9.57;;;-1.40;99.90;;;;;;5199662;28;20191;-46
2022/03/05 04:58:45;;;;;;;15.83;9.50;;;-1.40;99.90;;;;;;5198935;28;20188;-46
2022/03/05 05:01:15;;;;;;;20.13;9.37;;;-1.40;99.90;;;;;;5198025;28;20272;-46
2022/03/05 05:03:46;;;;;;;18.67;9.37;;;-1.40;99.90;;;;;;5198459;28;20354;-44
2022/03/05 05:06:17;;;;;;;18.07;9.80;;;-1.50;99.90;;;;;;5203538;28;20171;-46
2022/03/05 05:08:47;;;;;;;20.57;10.17;;;-1.50;99.90;;;;;;5200062;28;20602;-47
2022/03/05 05:11:18;;;;;;;14.93;8.30;;;-1.50;99.90;;;;;;5183982;28;20176;-47
2022/03/05 05:13:48;;;;;;;13.37;8.10;;;-1.50;99.90;;;;;;5200642;28;20191;-46
2022/03/05 05:16:19;;;;;;;15.70;8.40;;;-1.60;99.90;;;;;;5201758;28;20229;-46
2022/03/05 05:21:39;;;;;;;18.80;10.40;;;-1.60;99.90;;;;;;5198980;28;20214;-47
2022/03/05 05:24:10;;;;;;;16.33;10.43;;;-1.60;99.90;;;;;;5197302;28;20459;-46
2022/03/05 05:26:40;;;;;;;14.23;9.83;;;-1.60;99.90;;;;;;5195972;28;20326;-47
2022/03/05 05:29:11;;;;;;;22.60;9.00;;;-1.60;99.90;;;;;;5195848;28;20237;-49
2022/03/05 05:31:41;;;;;;;25.70;9.10;;;-1.60;99.90;;;;;;5201671;28;20182;-49
2022/03/05 05:34:12;;;;;;;21.57;9.90;;;-1.70;99.90;;;;;;5193898;28;20187;-47
2022/03/05 05:36:43;;;;;;;15.37;8.13;;;-1.70;99.90;;;;;;5203038;28;20290;-47
2022/03/05 05:39:15;;;;;;;21.73;10.27;;;-1.60;99.90;;;;;;5195842;28;20186;-47
2022/03/05 05:41:45;;;;;;;18.93;9.30;;;-1.70;99.90;;;;;;5199183;28;20446;-46
2022/03/05 05:44:16;;;;;;;16.30;9.77;;;-1.60;99.90;;;;;;5202324;28;20472;-47
2022/03/05 05:46:49;;;;;;;34.70;10.00;;;-1.60;99.90;;;;;;5197182;28;20194;-47
2022/03/05 05:49:20;;;;;;;15.73;10.50;;;-1.60;99.90;;;;;;5195949;28;20259;-47
2022/03/05 05:51:51;;;;;;;19.83;10.07;;;-1.60;99.90;;;;;;5192066;28;20522;-46
2022/03/05 05:54:23;;;;;;;18.33;10.20;;;-1.60;99.90;;;;;;5193367;28;20446;-46
2022/03/05 05:56:54;;;;;;;21.37;9.90;;;-1.60;99.90;;;;;;5195572;28;20199;-47
2022/03/05 05:59:24;;;;;;;15.27;9.70;;;-1.60;99.90;;;;;;5193654;28;20752;-47
2022/03/05 06:01:55;;;;;;;20.10;10.30;;;-1.60;99.90;;;;;;5195906;28;20601;-47
2022/03/05 06:04:25;;;;;;;18.70;10.57;;;-1.50;99.90;;;;;;5196165;28;20291;-47
2022/03/05 06:06:56;;;;;;;28.13;10.13;;;-1.50;99.90;;;;;;5203319;28;20223;-47
2022/03/05 06:09:26;;;;;;;20.53;9.90;;;-1.50;99.90;;;;;;5187573;28;20598;-47
2022/03/05 06:11:57;;;;;;;18.53;10.00;;;-1.50;99.90;;;;;;5206608;28;20197;-46
2022/03/05 06:14:27;;;;;;;18.23;9.53;;;-1.40;99.90;;;;;;5203977;28;20179;-46
2022/03/05 06:16:58;;;;;;;21.50;10.80;;;-1.40;99.90;;;;;;5202261;28;20219;-46
2022/03/05 06:19:28;;;;;;;16.47;9.50;;;-1.30;99.90;;;;;;5194859;28;20612;-48
2022/03/05 06:21:59;;;;;;;14.83;9.63;;;-1.20;99.90;;;;;;5200298;28;20189;-47
2022/03/05 06:24:30;;;;;;;17.33;10.17;;;-1.00;99.90;;;;;;5203652;28;20636;-47
2022/03/05 06:27:00;;;;;;;30.30;10.30;;;-0.90;99.90;;;;;;5214675;22;20243;-48
2022/03/05 06:29:31;;;;;;;19.93;10.70;;;-0.80;99.90;;;;;;5214666;28;20186;-48
2022/03/05 06:32:02;;;;;;;17.83;10.00;;;-0.70;99.90;;;;;;5224274;28;20171;-47
2022/03/05 06:34:32;;;;;;;17.07;9.70;;;-0.60;99.90;;;;;;5219532;28;20582;-49
2022/03/05 06:37:03;;;;;;;26.93;10.20;;;-0.60;99.90;;;;;;5216269;28;20207;-47
2022/03/05 06:39:33;;;;;;;24.20;10.60;;;-0.40;99.90;;;;;;5216633;28;20530;-47
2022/03/05 06:42:04;;;;;;;17.17;8.87;;;0.40;99.90;;;;;;5221243;28;20187;-49
2022/03/05 06:44:35;;;;;;;16.07;7.97;;;1.60;99.90;;;;;;5223680;28;20218;-47
2022/03/05 06:47:06;;;;;;;22.77;8.87;;;2.90;99.90;;;;;;5220533;28;20244;-49
2022/03/05 06:49:37;;;;;;;15.20;8.07;;;4.30;99.90;;;;;;5238423;28;20966;-50
2022/03/05 06:52:08;;;;;;;13.70;7.20;;;5.40;99.90;;;;;;5223268;28;20185;-48
2022/03/05 06:54:38;;;;;;;13.77;7.17;;;6.20;99.90;;;;;;5217981;28;20216;-49
2022/03/05 06:57:09;;;;;;;10.10;6.90;;;6.60;97.70;;;;;;5222170;28;20500;-48
2022/03/05 06:59:40;;;;;;;15.23;6.73;;;7.10;90.40;;;;;;5203074;28;20199;-48
2022/03/05 07:02:10;;;;;;;9.77;6.90;;;7.50;86.20;;;;;;5218496;28;20196;-48
2022/03/05 07:04:41;;;;;;;14.23;6.73;;;7.90;74.50;;;;;;5215382;28;20211;-49
2022/03/05 07:07:11;;;;;;;11.80;7.20;;;7.90;68.70;;;;;;5222263;28;20679;-47
2022/03/05 07:09:42;;;;;;;12.07;7.10;;;7.60;68.80;;;;;;5224815;28;20191;-48
2022/03/05 07:12:12;;;;;;;10.43;6.87;;;7.60;70.30;;;;;;5211227;28;20554;-49
2022/03/05 07:14:48;;;;;;;19.80;7.00;;;7.90;68.70;;;;;;5200913;28;20267;-48
2022/03/05 07:17:19;;;;;;;12.90;6.40;;;8.30;63.70;;;;;;5216744;28;20207;-48
2022/03/05 07:19:50;;;;;;;17.00;6.13;;;8.30;63.90;;;;;;5220874;28;20917;-48
2022/03/05 07:22:21;;;;;;;13.00;7.07;;;8.40;61.00;;;;;;5222250;28;20183;-47
2022/03/05 07:24:52;;;;;;;11.40;6.63;;;8.40;60.90;;;;;;5220890;28;20464;-49
2022/03/05 07:27:22;;;;;;;11.70;6.67;;;8.60;60.70;;;;;;5225131;28;20468;-48
2022/03/05 07:29:53;;;;;;;20.03;5.93;;;8.90;58.10;;;;;;5217401;28;20182;-48
2022/03/05 07:32:23;;;;;;;11.83;7.10;;;9.20;57.60;;;;;;5217021;28;20182;-49
2022/03/05 07:34:54;;;;;;;14.73;6.67;;;9.40;55.80;;;;;;5210915;28;20195;-48
2022/03/05 07:37:24;;;;;;;14.17;7.10;;;9.50;56.20;;;;;;5211637;28;20202;-49
2022/03/05 07:39:55;;;;;;;14.30;7.33;;;9.90;54.90;;;;;;5221667;28;20183;-49
2022/03/05 07:42:26;;;;;;;9.33;6.87;;;10.30;51.90;;;;;;5219709;28;20545;-48
2022/03/05 07:44:56;;;;;;;13.90;7.00;;;10.40;51.20;;;;;;5217416;28;20213;-48
2022/03/05 07:47:27;;;;;;;16.80;6.97;;;10.40;50.60;;;;;;5215675;28;20199;-49
2022/03/05 07:49:58;;;;;;;11.20;5.70;;;10.50;50.10;;;;;;5216083;28;20183;-48
2022/03/05 07:52:28;;;;;;;9.50;7.07;;;9.90;51.10;;;;;;5212349;28;20261;-48
2022/03/05 07:54:59;;;;;;;10.90;7.40;;;9.40;52.90;;;;;;5210911;28;20185;-49
2022/03/05 07:57:31;;;;;;;9.60;6.83;;;8.30;55.00;;;;;;5217119;28;20615;-49
2022/03/05 08:00:05;;;;;;;10.03;6.17;;;6.40;58.80;;;;;;5216562;28;20180;-49
2022/03/05 08:02:36;;;;;;;13.73;7.83;;;4.40;86.70;;;;;;5215180;28;20437;-48
2022/03/05 08:05:07;;;;;;;12.77;7.70;;;3.20;99.90;;;;;;5216019;28;20457;-49
2022/03/05 08:07:37;;;;;;;25.00;7.10;;;2.50;99.90;;;;;;5218307;28;20205;-49
2022/03/05 08:10:08;;;;;;;17.17;8.00;;;2.10;99.90;;;;;;5219944;28;20431;-48
2022/03/05 08:12:39;;;;;;;13.10;7.60;;;1.90;99.90;;;;;;5221123;28;20196;-48
2022/03/05 08:15:10;;;;;;;10.90;7.43;;;1.80;99.90;;;;;;5216098;28;20522;-49
2022/03/05 08:17:56;;;;;;;13.43;6.93;;;1.70;99.90;;;;;;5211845;28;20207;-47
2022/03/05 08:20:29;;;;;;;17.20;8.00;;;1.70;99.90;;;;;;5213898;28;20190;-47
2022/03/05 08:23:00;;;;;;;10.97;7.43;;;1.70;99.90;;;;;;5211442;28;20915;-49
2022/03/05 08:25:30;;;;;;;14.23;7.20;;;1.60;99.90;;;;;;5214992;28;20441;-48
2022/03/05 08:28:01;;;;;;;22.00;7.47;;;1.70;99.90;;;;;;5216745;28;20655;-47
2022/03/05 08:30:32;;;;;;;13.50;8.53;;;1.60;99.90;;;;;;5216336;28;20688;-48
2022/03/05 08:33:02;;;;;;;16.30;8.50;;;1.60;99.90;;;;;;5233243;28;22013;-47
2022/03/05 08:35:33;;;;;;;15.27;8.23;;;1.70;99.90;;;;;;5219677;28;20244;-48
2022/03/05 08:38:04;;;;;;;17.23;7.90;;;1.80;99.90;;;;;;5220933;28;20199;-49
2022/03/05 08:40:34;;;;;;;12.80;7.53;;;1.90;99.90;;;;;;5218543;28;20183;-48
2022/03/05 08:43:05;;;;;;;11.33;7.00;;;1.90;99.90;;;;;;5218814;28;20562;-49
2022/03/05 08:45:36;;;;;;;15.30;8.00;;;2.00;99.90;;;;;;5223087;28;20274;-48
2022/03/05 08:48:06;;;;;;;12.53;8.50;;;2.00;99.90;;;;;;5224405;28;20213;-48
2022/03/05 08:50:37;;;;;;;16.83;8.50;;;2.00;99.90;;;;;;5221449;28;20186;-48
2022/03/05 08:53:08;;;;;;;11.97;7.37;;;2.00;99.90;;;;;;5224015;28;20608;-49
2022/03/05 08:55:38;;;;;;;10.23;6.93;;;2.10;99.90;;;;;;5225380;28;20186;-47
2022/03/05 08:58:09;;;;;;;15.20;5.80;;;2.20;99.90;;;;;;5227837;28;20276;-50
2022/03/05 09:00:39;;;;;;;11.73;7.50;;;2.20;99.90;;;;;;5225015;28;20179;-48
2022/03/05 09:03:10;;;;;;;21.57;7.90;;;2.30;99.90;;;;;;5227389;28;20270;-48
2022/03/05 09:05:41;;;;;;;12.20;7.80;;;2.30;99.90;;;;;;5223528;28;20178;-47
2022/03/05 09:08:15;;;;;;;16.30;7.97;;;2.40;99.90;;;;;;5223609;28;20576;-46
2022/03/05 09:10:46;;;;;;;9.67;7.10;;;2.40;99.90;;;;;;5223246;28;20449;-49
2022/03/05 09:13:17;;;;;;;12.10;8.07;;;2.40;99.90;;;;;;5221894;28;20439;-50
2022/03/05 09:15:49;;;;;;;14.10;7.37;;;2.50;99.90;;;;;;5218861;28;20773;-50
2022/03/05 09:18:19;;;;;;;16.13;6.77;;;2.70;99.90;;;;;;5220923;28;20464;-48
2022/03/05 09:20:50;;;;;;;11.73;6.93;;;2.90;99.90;;;;;;5217452;28;20183;-49
2022/03/05 09:23:21;;;;;;;15.83;7.57;;;2.90;99.90;;;;;;5214764;28;20762;-49
2022/03/05 09:25:51;;;;;;;11.37;6.43;;;2.90;99.90;;;;;;5220897;28;20332;-49
2022/03/05 09:28:23;;;;;;;11.97;7.70;;;3.00;99.90;;;;;;5219280;28;20627;-52
2022/03/05 09:30:53;;;;;;;10.83;7.27;;;3.00;99.90;;;;;;5220450;28;20191;-48
2022/03/05 09:33:25;;;;;;;8.77;7.00;;;3.00;99.90;;;;;;5217995;28;20460;-48
2022/03/05 09:35:56;;;;;;;8.33;6.57;;;3.00;99.90;;;;;;5221728;28;20191;-49
2022/03/05 09:38:26;;;;;;;9.80;6.63;;;3.10;99.90;;;;;;5216732;28;20476;-48
2022/03/05 09:40:57;;;;;;;13.57;7.37;;;3.20;99.90;;;;;;5209037;28;20259;-50
2022/03/05 09:43:27;;;;;;;7.53;6.77;;;3.30;99.90;;;;;;5214163;28;20215;-50
2022/03/05 09:45:58;;;;;;;16.43;7.93;;;3.40;99.90;;;;;;5220340;28;20183;-49
2022/03/05 09:48:30;;;;;;;10.17;6.47;;;3.40;99.90;;;;;;5221556;28;20210;-48
2022/03/05 09:51:01;;;;;;;12.17;7.43;;;3.50;99.90;;;;;;5222482;28;20453;-49
2022/03/05 09:53:32;;;;;;;13.87;7.63;;;3.60;99.90;;;;;;5213810;28;20515;-50
2022/03/05 09:56:03;;;;;;;14.70;7.80;;;3.60;99.90;;;;;;5217790;28;20195;-49
2022/03/05 09:58:34;;;;;;;12.97;7.20;;;3.70;99.90;;;;;;5220376;28;20477;-49
2022/03/05 10:01:04;;;;;;;11.50;7.10;;;3.70;99.90;;;;;;5214625;28;20564;-49
2022/03/05 10:04:17;;;;;;;10.23;7.00;;;3.70;99.90;;;;;;5217042;28;20265;-48
2022/03/05 10:07:09;;;;;;;16.40;7.80;;;3.80;99.90;;;;;;5210704;28;20190;-49
2022/03/05 10:09:46;;;;;;;12.20;6.50;;;3.90;99.90;;;;;;5214996;28;20487;-49
2022/03/05 10:12:31;;;;;;;11.27;6.97;;;4.10;99.90;;;;;;5217463;28;20796;-49
2022/03/05 10:15:05;;;;;;;12.77;7.57;;;4.20;99.90;;;;;;5222607;28;20849;-49
2022/03/05 10:17:56;;;;;;;10.40;7.50;;;4.20;99.90;;;;;;5224407;28;21031;-49
2022/03/05 10:20:29;;;;;;;11.50;6.70;;;4.10;99.90;;;;;;5233237;28;20446;-49
2022/03/05 10:23:08;;;;;;;9.37;6.23;;;4.10;99.90;;;;;;5185081;28;20449;-49
2022/03/05 10:26:01;;;;;;;10.90;6.20;;;4.20;99.90;;;;;;5215658;28;20444;-48
2022/03/05 10:28:32;;;;;;;8.87;6.20;;;4.10;99.90;;;;;;5223724;28;20754;-50
2022/03/05 10:31:10;;;;;;;9.10;6.50;;;4.00;99.90;;;;;;5219372;28;20448;-49
2022/03/05 10:33:45;;;;;;;9.03;6.33;;;4.10;99.90;;;;;;5211465;28;20524;-50
2022/03/05 10:36:23;;;;;;;7.20;5.60;;;4.50;99.90;;;;;;5213362;28;20896;-50
2022/03/05 10:38:56;;;;;;;11.00;7.37;;;4.90;99.90;;;;;;5209796;28;20477;-49
2022/03/05 10:41:38;;;;;;;11.50;6.97;;;5.20;99.90;;;;;;5218987;28;20437;-49
2022/03/05 10:44:15;;;;;;;9.23;6.33;;;5.20;99.90;;;;;;5223034;28;20465;-48
2022/03/05 10:47:00;;;;;;;9.97;6.47;;;5.00;99.90;;;;;;5222668;28;20446;-49
2022/03/05 10:49:36;;;;;;;11.60;6.00;;;4.80;99.90;;;;;;5220786;28;20486;-49
2022/03/05 10:52:09;;;;;;;10.57;7.27;;;4.70;99.90;;;;;;5225019;28;20481;-49
2022/03/05 10:54:42;;;;;;;6.13;5.53;;;4.60;99.90;;;;;;5209507;28;20429;-50
2022/03/05 10:57:18;;;;;;;15.20;6.33;;;4.50;99.90;;;;;;5197377;28;20907;-50
2022/03/05 11:00:07;;;;;;;9.20;6.37;;;4.50;99.90;;;;;;5225600;28;20440;-49
2022/03/05 11:02:38;;;;;;;5.57;4.40;;;4.70;99.90;;;;;;5211597;28;20442;-49
2022/03/05 11:05:09;;;;;;;12.57;6.40;;;4.60;99.90;;;;;;5219239;28;20945;-49
2022/03/05 11:07:39;;;;;;;10.90;6.40;;;4.50;99.90;;;;;;5218284;28;20261;-49
2022/03/05 11:10:11;;;;;;;6.57;5.73;;;4.50;99.90;;;;;;5218516;28;20183;-48
2022/03/05 11:12:45;;;;;;;6.60;5.77;;;4.40;99.90;;;;;;5221279;28;20183;-49
2022/03/05 11:15:16;;;;;;;11.10;6.63;;;4.20;99.90;;;;;;5204756;28;20445;-49
2022/03/05 11:17:47;;;;;;;7.17;6.00;;;4.10;99.90;;;;;;5217376;28;20457;-50
2022/03/05 11:20:17;;;;;;;11.83;6.27;;;4.10;99.90;;;;;;5219001;28;20674;-49
2022/03/05 11:22:51;;;;;;;7.63;6.47;;;4.10;99.90;;;;;;5217965;28;20643;-48
2022/03/05 11:25:25;;;;;;;9.87;6.07;;;4.00;99.90;;;;;;5223109;28;20344;-49
2022/03/05 11:27:58;;;;;;;15.33;5.80;;;3.80;99.90;;;;;;5216073;28;20469;-50
2022/03/05 11:30:39;;;;;;;7.23;6.07;;;3.80;99.90;;;;;;5217983;28;20550;-49
2022/03/05 11:33:12;;;;;;;7.17;5.93;;;4.00;99.90;;;;;;5214017;28;20434;-49
2022/03/05 11:35:45;;;;;;;10.40;6.10;;;4.30;99.90;;;;;;5204815;28;20493;-48
2022/03/05 11:38:36;;;;;;;7.03;5.57;;;4.30;98.70;;;;;;5212226;28;21018;-50
2022/03/05 11:41:19;;;;;;;10.40;5.80;;;4.30;98.80;;;;;;5213681;28;20888;-48
2022/03/05 11:43:49;;;;;;;5.30;4.80;;;4.30;98.10;;;;;;5217035;28;20516;-48
2022/03/05 11:46:28;;;;;;;8.83;5.37;;;4.20;97.70;;;;;;5218563;28;20590;-48
2022/03/05 11:49:05;;;;;;;4.97;4.50;;;4.20;97.90;;;;;;5204476;28;20210;-49
2022/03/05 11:51:57;;;;;;;14.10;6.13;;;4.20;97.40;;;;;;5214635;28;20434;-48
2022/03/05 11:54:28;;;;;;;6.10;4.83;;;4.40;96.90;;;;;;5220520;28;20441;-48
2022/03/05 11:57:10;;;;;;;5.50;4.03;;;4.70;95.30;;;;;;5219245;28;20530;-48
2022/03/05 11:59:43;;;;;;;6.13;5.17;;;4.90;95.00;;;;;;5217209;28;20194;-50
2022/03/05 12:02:39;;;;;;;9.03;5.63;;;4.90;94.30;;;;;;5215811;28;20430;-49
2022/03/05 12:05:10;;;;;;;4.50;4.10;;;4.70;94.10;;;;;;5212874;28;20843;-50
2022/03/05 12:07:41;;;;;;;5.80;4.60;;;4.50;95.50;;;;;;5217474;28;20472;-49
2022/03/05 12:10:13;;;;;;;9.53;4.67;;;4.40;97.10;;;;;;5211711;28;20183;-49
2022/03/05 12:12:55;;;;;;;9.43;4.77;;;4.30;97.50;;;;;;5214108;28;20960;-49
2022/03/05 12:15:34;;;;;;;7.70;4.17;;;4.20;96.60;;;;;;5217265;28;20484;-48
2022/03/05 12:18:08;;;;;;;6.73;4.37;;;4.10;97.30;;;;;;5216618;28;21039;-49
2022/03/05 12:20:42;;;;;;;5.50;5.00;;;4.00;97.40;;;;;;5219369;28;20516;-50
2022/03/05 12:23:19;;;;;;;12.60;8.30;;;4.00;97.70;;;;;;5230171;28;20646;-50
2022/03/05 12:25:49;;;;;;;5.70;4.20;;;4.20;96.60;;;;;;5225703;28;20576;-51
2022/03/05 12:28:24;;;;;;;5.30;4.17;;;4.50;95.50;;;;;;5208065;22;20506;-51
2022/03/05 12:30:58;;;;;;;9.33;4.70;;;4.70;93.00;;;;;;5167364;28;20730;-52
2022/03/05 12:33:32;;;;;;;7.10;4.30;;;5.00;91.10;;;;;;5185645;28;20415;-54
2022/03/05 12:36:02;;;;;;;5.47;3.90;;;5.10;85.50;;;;;;5183482;28;20510;-52
2022/03/05 12:38:33;;;;;;;8.83;4.17;;;5.10;86.70;;;;;;5169497;28;20455;-52
2022/03/05 12:41:03;;;;;;;4.73;4.27;;;5.00;85.10;;;;;;5171634;28;20220;-53
2022/03/05 12:43:34;;;;;;;4.40;3.70;;;5.00;80.90;;;;;;5186148;28;20267;-52
2022/03/05 12:46:05;;;;;;;4.33;3.90;;;5.00;80.40;;;;;;5183641;28;20519;-53
2022/03/05 12:48:35;;;;;;;3.90;3.50;;;4.90;78.60;;;;;;5157422;28;20255;-51
2022/03/05 12:51:06;;;;;;;9.23;4.03;;;4.70;75.60;;;;;;5164439;28;20177;-51
2022/03/05 12:53:36;;;;;;;7.30;3.80;;;4.60;76.70;;;;;;5159265;28;20275;-53
2022/03/05 12:56:08;;;;;;;3.93;3.70;;;4.50;77.40;;;;;;5162605;28;20184;-52
2022/03/05 12:58:40;;;;;;;10.90;4.00;;;4.40;77.60;;;;;;5148503;28;20224;-50
2022/03/05 13:01:12;;;;;;;7.23;3.53;;;4.30;79.40;;;;;;5161797;28;20516;-52
2022/03/05 13:03:43;;;;;;;5.40;3.60;;;4.20;80.60;;;;;;5172693;28;20451;-54
2022/03/05 13:06:13;;;;;;;6.97;3.90;;;4.30;81.40;;;;;;5183331;28;20443;-51
2022/03/05 13:08:44;;;;;;;4.53;2.80;;;4.50;82.00;;;;;;5174766;28;20285;-51
2022/03/05 13:11:20;;;;;;;5.83;3.57;;;4.70;77.90;;;;;;5165613;28;20226;-51
2022/03/05 13:13:56;;;;;;;3.60;3.30;;;4.90;75.60;;;;;;5181229;28;20195;-50